createdAt,value
2019-03-29T00:01:13.712Z,95085.73
2019-03-29T00:03:42.331Z,95084.84
2019-03-29T00:06:11.104Z,95084.84
2019-03-29T00:08:39.708Z,95085.56
2019-03-29T00:11:08.333Z,95089.47
2019-03-29T00:13:37.156Z,95087.84
2019-03-29T00:16:05.810Z,95083.08
2019-03-29T00:18:34.443Z,95086.02
2019-03-29T00:21:03.059Z,95089.78
2019-03-29T00:23:31.852Z,95093.20
2019-03-29T00:26:00.477Z,95087.59
2019-03-29T00:28:29.109Z,95093.96
2019-03-29T00:30:57.752Z,95090.38
2019-03-29T00:33:26.374Z,95090.38
2019-03-29T00:35:55.002Z,95098.38
2019-03-29T00:38:23.661Z,95100.19
2019-03-29T00:40:52.285Z,95098.64
2019-03-29T00:43:20.911Z,95096.56
2019-03-29T00:45:49.590Z,95097.84
2019-03-29T00:48:18.217Z,95097.84
2019-03-29T00:50:46.765Z,95103.16
2019-03-29T00:53:15.423Z,95098.50
2019-03-29T00:55:44.043Z,95098.50
2019-03-29T00:58:12.670Z,95101.67
2019-03-29T01:00:41.319Z,95098.20
2019-03-29T01:03:10.907Z,95099.74
2019-03-29T01:05:39.549Z,95104.42
2019-03-29T01:08:10.280Z,95095.38
2019-03-29T01:10:38.620Z,95092.83
2019-03-29T01:13:07.248Z,95095.07
2019-03-29T01:15:36.170Z,95089.17
2019-03-29T01:18:04.777Z,95084.25
2019-03-29T01:20:33.494Z,95082.16
2019-03-29T01:23:02.149Z,95074.29
2019-03-29T01:25:30.773Z,95078.58
2019-03-29T01:27:59.398Z,95077.31
2019-03-29T01:30:28.050Z,95073.16
2019-03-29T01:32:56.682Z,95076.75
2019-03-29T01:38:40.917Z,95066.27
2019-03-29T01:41:09.542Z,95074.06
2019-03-29T01:43:38.169Z,95068.38
2019-03-29T01:46:06.829Z,95071.67
2019-03-29T01:48:35.442Z,95074.52
2019-03-29T01:51:04.078Z,95074.72
2019-03-29T01:53:32.750Z,95070.88
2019-03-29T01:56:01.447Z,95081.77
2019-03-29T01:58:30.148Z,95071.97
2019-03-29T02:00:58.805Z,95074.41
2019-03-29T02:03:27.513Z,95077.47
2019-03-29T02:05:56.142Z,95071.28
2019-03-29T02:08:35.244Z,95076.85
2019-03-29T02:10:55.144Z,95076.55
2019-03-29T02:13:23.772Z,95073.19
2019-03-29T02:15:52.431Z,95079.53
2019-03-29T02:18:21.055Z,95077.53
2019-03-29T02:20:50.134Z,95071.10
2019-03-29T02:23:19.093Z,95081.59
2019-03-29T02:25:47.718Z,95075.51
2019-03-29T02:28:16.353Z,95080.28
2019-03-29T02:30:45.035Z,95082.19
2019-03-29T02:33:13.598Z,95083.08
2019-03-29T02:35:42.221Z,95086.70
2019-03-29T02:38:10.889Z,95087.61
2019-03-29T02:40:39.503Z,95089.02
2019-03-29T02:43:08.132Z,95087.67
2019-03-29T02:45:36.790Z,95101.20
2019-03-29T02:48:05.454Z,95095.72
2019-03-29T02:50:34.036Z,95092.86
2019-03-29T02:53:02.706Z,95100.52
2019-03-29T02:55:31.321Z,95094.81
2019-03-29T02:57:59.953Z,95091.24
2019-03-29T03:00:28.624Z,95094.17
2019-03-29T03:02:57.334Z,95093.37
2019-03-29T03:05:25.931Z,95094.33
2019-03-29T03:07:54.603Z,95098.67
2019-03-29T03:10:23.226Z,95090.66
2019-03-29T03:12:51.845Z,95092.31
2019-03-29T03:15:20.562Z,95094.16
2019-03-29T03:17:49.192Z,95096.69
2019-03-29T03:20:18.124Z,95088.86
2019-03-29T03:22:46.780Z,95095.61
2019-03-29T03:25:15.412Z,95096.89
2019-03-29T03:27:44.016Z,95096.55
2019-03-29T03:30:13.229Z,95100.27
2019-03-29T03:32:41.916Z,95099.14
2019-03-29T03:35:11.042Z,95098.53
2019-03-29T03:37:39.693Z,95104.83
2019-03-29T03:40:09.928Z,95098.87
2019-03-29T03:42:38.555Z,95094.42
2019-03-29T03:45:07.906Z,95097.24
2019-03-29T03:47:37.330Z,95100.33
2019-03-29T03:50:06.854Z,95101.23
2019-03-29T03:52:35.584Z,95106.20
2019-03-29T03:55:05.997Z,95109.06
2019-03-29T03:57:35.513Z,95112.34
2019-03-29T04:00:09.126Z,95112.71
2019-03-29T04:02:37.763Z,95105.78
2019-03-29T04:05:07.581Z,95112.36
2019-03-29T04:07:36.250Z,95112.80
2019-03-29T04:10:07.181Z,95118.22
2019-03-29T04:12:35.883Z,95118.77
2019-03-29T04:15:05.436Z,95126.38
2019-03-29T04:17:34.044Z,95117.11
2019-03-29T04:20:02.715Z,95125.55
2019-03-29T04:22:31.356Z,95123.84
2019-03-29T04:24:59.975Z,95131.59
2019-03-29T04:27:28.594Z,95127.66
2019-03-29T04:29:57.260Z,95128.74
2019-03-29T04:32:25.892Z,95125.64
2019-03-29T04:34:54.520Z,95130.67
2019-03-29T04:37:23.214Z,95121.81
2019-03-29T04:40:06.484Z,95115.84
2019-03-29T04:42:22.181Z,95118.71
2019-03-29T04:44:50.837Z,95114.70
2019-03-29T04:47:19.485Z,95114.53
2019-03-29T04:49:48.129Z,95121.23
2019-03-29T04:52:16.785Z,95121.86
2019-03-29T04:54:45.415Z,95121.41
2019-03-29T04:57:14.037Z,95121.63
2019-03-29T04:59:42.706Z,95121.63
2019-03-29T05:02:11.331Z,95119.62
2019-03-29T05:04:39.959Z,95125.99
2019-03-29T05:07:08.619Z,95126.92
2019-03-29T05:09:37.183Z,95127.33
2019-03-29T05:12:05.807Z,95130.95
2019-03-29T05:14:34.543Z,95125.53
2019-03-29T05:17:03.230Z,95124.01
2019-03-29T05:19:31.860Z,95132.66
2019-03-29T05:22:00.603Z,95136.52
2019-03-29T05:24:29.232Z,95134.99
2019-03-29T05:26:57.853Z,95129.00
2019-03-29T05:29:26.512Z,95127.53
2019-03-29T05:31:55.131Z,95126.83
2019-03-29T05:34:23.765Z,95126.30
2019-03-29T05:36:52.423Z,95129.00
2019-03-29T05:39:21.047Z,95130.44
2019-03-29T05:41:49.672Z,95136.39
2019-03-29T05:44:18.266Z,95132.17
2019-03-29T05:46:46.895Z,95126.25
2019-03-29T05:49:15.525Z,95135.23
2019-03-29T05:51:44.169Z,95135.23
2019-03-29T05:54:13.405Z,95135.41
2019-03-29T05:56:42.101Z,95133.30
2019-03-29T05:59:10.761Z,95130.94
2019-03-29T06:01:39.457Z,95132.50
2019-03-29T06:04:08.087Z,95138.47
2019-03-29T06:06:36.675Z,95143.45
2019-03-29T06:09:06.805Z,95142.70
2019-03-29T06:11:35.804Z,95148.09
2019-03-29T06:14:04.497Z,95151.78
2019-03-29T06:16:38.790Z,95148.88
2019-03-29T06:19:03.472Z,95154.53
2019-03-29T06:21:32.133Z,95159.20
2019-03-29T06:24:00.775Z,95159.20
2019-03-29T06:26:29.408Z,95155.89
2019-03-29T06:28:58.239Z,95158.75
2019-03-29T06:31:26.793Z,95145.14
2019-03-29T06:33:55.422Z,95145.14
2019-03-29T06:36:25.190Z,95155.77
2019-03-29T06:38:55.332Z,95153.68
2019-03-29T06:41:24.040Z,95151.13
2019-03-29T06:43:52.643Z,95151.13
2019-03-29T06:46:21.272Z,95134.02
2019-03-29T06:48:49.905Z,95143.27
2019-03-29T06:51:18.566Z,95143.27
2019-03-29T06:53:47.189Z,95141.79
2019-03-29T06:56:15.808Z,95137.41
2019-03-29T06:58:44.466Z,95147.84
2019-03-29T07:01:13.097Z,95142.23
2019-03-29T07:03:41.667Z,95142.23
2019-03-29T07:06:10.345Z,95129.55
2019-03-29T07:08:38.973Z,95138.30
2019-03-29T07:11:17.351Z,95138.30
2019-03-29T07:13:37.985Z,95133.17
2019-03-29T07:16:06.610Z,95127.44
2019-03-29T07:18:35.239Z,95127.44
2019-03-29T07:21:03.925Z,95128.15
2019-03-29T07:23:32.620Z,95128.15
2019-03-29T07:26:01.254Z,95129.87
2019-03-29T07:28:29.919Z,95125.80
2019-03-29T07:30:58.605Z,95126.58
2019-03-29T07:33:27.227Z,95121.03
2019-03-29T07:35:55.957Z,95117.02
2019-03-29T07:38:24.580Z,95125.78
2019-03-29T07:40:53.206Z,95119.74
2019-03-29T07:43:24.071Z,95126.00
2019-03-29T07:45:52.291Z,95113.81
2019-03-29T07:48:20.916Z,95113.81
2019-03-29T07:50:49.583Z,95112.16
2019-03-29T07:53:18.204Z,95109.90
2019-03-29T07:55:46.820Z,95107.47
2019-03-29T07:58:15.482Z,95115.95
2019-03-29T08:00:44.021Z,95113.48
2019-03-29T08:03:12.654Z,95108.53
2019-03-29T08:05:41.296Z,95113.34
2019-03-29T08:08:23.156Z,95107.50
2019-03-29T08:10:40.255Z,95100.67
2019-03-29T08:13:08.908Z,95098.64
2019-03-29T08:15:37.532Z,95097.55
2019-03-29T08:18:06.155Z,95097.39
2019-03-29T08:20:43.288Z,95096.46
2019-03-29T08:23:05.182Z,95094.71
2019-03-29T08:25:33.872Z,95094.44
2019-03-29T08:28:02.536Z,95087.13
2019-03-29T08:30:31.147Z,95082.05
2019-03-29T08:32:59.761Z,95076.63
2019-03-29T08:35:28.432Z,95076.63
2019-03-29T08:37:57.052Z,95076.13
2019-03-29T08:40:25.603Z,95087.94
2019-03-29T08:42:54.247Z,95088.61
2019-03-29T08:45:22.932Z,95077.77
2019-03-29T08:47:51.557Z,95090.17
2019-03-29T08:50:20.209Z,95083.75
2019-03-29T08:52:48.838Z,95079.30
2019-03-29T08:55:17.891Z,95073.12
2019-03-29T08:57:46.602Z,95069.35
2019-03-29T09:00:18.133Z,95067.50
2019-03-29T09:02:46.753Z,95069.94
2019-03-29T09:05:15.419Z,95072.73
2019-03-29T09:07:45.417Z,95069.87
2019-03-29T09:10:27.365Z,95070.25
2019-03-29T09:12:55.880Z,95057.30
2019-03-29T09:15:24.508Z,95052.45
2019-03-29T09:17:53.217Z,95063.98
2019-03-29T09:20:21.805Z,95070.80
2019-03-29T09:22:50.403Z,95059.56
2019-03-29T09:25:21.061Z,95038.84
2019-03-29T09:27:49.411Z,95052.60
2019-03-29T09:30:18.031Z,95043.81
2019-03-29T09:32:46.686Z,95022.78
2019-03-29T09:35:15.387Z,95035.73
2019-03-29T09:37:44.094Z,95030.73
2019-03-29T09:40:14.027Z,95024.50
2019-03-29T09:42:42.911Z,95019.73
2019-03-29T09:45:11.598Z,95017.23
2019-03-29T09:47:40.822Z,95011.88
2019-03-29T09:50:10.945Z,95011.27
2019-03-29T09:52:39.570Z,95005.90
2019-03-29T09:55:08.694Z,95006.57
2019-03-29T09:57:38.264Z,94998.00
2019-03-29T10:00:20.967Z,95000.05
2019-03-29T10:02:41.320Z,94998.27
2019-03-29T10:05:10.560Z,94995.94
2019-03-29T10:07:39.111Z,95003.08
2019-03-29T10:10:07.971Z,94983.22
2019-03-29T10:12:43.489Z,94983.89
2019-03-29T10:15:08.212Z,94992.68
2019-03-29T10:17:36.875Z,94984.03
2019-03-29T10:20:07.404Z,94980.33
2019-03-29T10:22:36.031Z,94982.16
2019-03-29T10:25:18.625Z,94980.06
2019-03-29T10:27:36.833Z,94974.83
2019-03-29T10:30:09.056Z,94976.86
2019-03-29T10:32:37.717Z,94979.05
2019-03-29T10:35:07.433Z,94965.77
2019-03-29T10:37:36.048Z,94963.83
2019-03-29T10:40:07.311Z,94956.73
2019-03-29T10:42:39.664Z,94975.11
2019-03-29T10:45:06.474Z,94970.58
2019-03-29T10:47:43.609Z,94964.31
2019-03-29T10:50:07.194Z,94962.14
2019-03-29T10:52:35.819Z,94961.61
2019-03-29T10:55:04.880Z,94963.59
2019-03-29T10:57:33.582Z,94964.38
2019-03-29T11:00:02.145Z,94955.50
2019-03-29T11:02:30.875Z,94946.83
2019-03-29T11:04:59.424Z,94945.47
2019-03-29T11:07:28.045Z,94972.35
2019-03-29T11:09:56.728Z,94953.56
2019-03-29T11:12:25.424Z,94961.17
2019-03-29T11:14:54.045Z,94953.50
2019-03-29T11:17:22.769Z,94950.94
2019-03-29T11:19:51.471Z,94951.59
2019-03-29T11:22:20.095Z,94950.79
2019-03-29T11:24:48.752Z,94943.52
2019-03-29T11:27:17.380Z,94954.11
2019-03-29T11:29:46.005Z,94953.13
2019-03-29T11:32:14.667Z,94950.83
2019-03-29T11:34:43.286Z,94945.12
2019-03-29T11:37:11.909Z,94946.47
2019-03-29T11:39:40.499Z,94944.46
2019-03-29T11:42:09.116Z,94945.52
2019-03-29T11:44:37.670Z,94929.23
2019-03-29T11:47:06.710Z,94934.73
2019-03-29T11:49:35.323Z,94926.13
2019-03-29T11:52:03.947Z,94933.87
2019-03-29T11:54:32.617Z,94940.87
2019-03-29T11:57:01.272Z,94921.73
2019-03-29T11:59:29.895Z,94938.43
2019-03-29T12:01:58.557Z,94925.94
2019-03-29T12:04:27.256Z,94913.81
2019-03-29T12:06:55.881Z,94921.08
2019-03-29T12:09:24.541Z,94915.98
2019-03-29T12:11:53.173Z,94923.24
2019-03-29T12:14:21.671Z,94931.63
2019-03-29T12:16:50.321Z,94929.39
2019-03-29T12:19:18.946Z,94925.87
2019-03-29T12:21:47.573Z,94921.69
2019-03-29T12:24:16.235Z,94905.83
2019-03-29T12:26:44.935Z,94907.61
2019-03-29T12:29:13.632Z,94909.67
2019-03-29T12:31:42.353Z,94891.98
2019-03-29T12:34:10.997Z,94898.02
2019-03-29T12:36:39.625Z,94896.16
2019-03-29T12:39:08.494Z,94892.76
2019-03-29T12:41:37.118Z,94887.67
2019-03-29T12:44:05.811Z,94900.23
2019-03-29T12:46:34.543Z,94885.26
2019-03-29T12:49:03.163Z,94887.63
2019-03-29T12:51:31.888Z,94883.50
2019-03-29T12:54:00.473Z,94898.56
2019-03-29T12:56:29.093Z,94894.91
2019-03-29T12:58:57.720Z,94887.19
2019-03-29T13:01:38.641Z,94885.05
2019-03-29T13:03:56.735Z,94886.20
2019-03-29T13:06:25.349Z,94876.05
2019-03-29T13:08:53.999Z,94876.25
2019-03-29T13:11:22.621Z,94871.52
2019-03-29T13:13:51.317Z,94869.40
2019-03-29T13:16:20.049Z,94869.86
2019-03-29T13:18:48.741Z,94856.20
2019-03-29T13:21:17.441Z,94861.76
2019-03-29T13:23:46.098Z,94858.05
2019-03-29T13:26:14.725Z,94862.42
2019-03-29T13:28:43.341Z,94863.91
2019-03-29T13:31:12.517Z,94868.08
2019-03-29T13:33:41.126Z,94864.87
2019-03-29T13:36:09.753Z,94872.37
2019-03-29T13:38:38.334Z,94855.74
2019-03-29T13:41:07.335Z,94850.45
2019-03-29T13:43:35.989Z,94838.59
2019-03-29T13:46:04.647Z,94850.53
2019-03-29T13:48:33.268Z,94854.92
2019-03-29T13:51:01.902Z,94849.11
2019-03-29T13:53:31.494Z,94851.17
2019-03-29T13:56:00.183Z,94868.08
2019-03-29T13:58:28.753Z,94853.16
2019-03-29T14:00:57.410Z,94851.16
2019-03-29T14:03:26.037Z,94852.50
2019-03-29T14:05:54.679Z,94858.73
2019-03-29T14:08:23.345Z,94856.95
2019-03-29T14:10:51.974Z,94863.48
2019-03-29T14:13:20.608Z,94869.27
2019-03-29T14:15:49.209Z,94856.80
2019-03-29T14:18:17.837Z,94857.31
2019-03-29T14:20:46.475Z,94858.14
2019-03-29T14:23:15.138Z,94849.63
2019-03-29T14:25:43.768Z,94848.54
2019-03-29T14:28:12.463Z,94856.42
2019-03-29T14:30:41.139Z,94848.86
2019-03-29T14:33:09.762Z,94850.11
2019-03-29T14:35:38.390Z,94858.08
2019-03-29T14:38:07.049Z,94839.16
2019-03-29T14:40:35.684Z,94835.44
2019-03-29T14:43:04.312Z,94829.84
2019-03-29T14:45:33.069Z,94829.29
2019-03-29T14:48:01.716Z,94831.83
2019-03-29T14:50:30.415Z,94834.87
2019-03-29T14:52:59.077Z,94835.52
2019-03-29T14:55:27.705Z,94843.36
2019-03-29T14:57:56.328Z,94850.80
2019-03-29T15:00:36.528Z,94841.89
2019-03-29T15:03:05.362Z,94836.99
2019-03-29T15:05:33.989Z,94841.87
2019-03-29T15:08:02.775Z,94830.50
2019-03-29T15:10:31.488Z,94839.13
2019-03-29T15:13:00.117Z,94833.63
2019-03-29T15:15:28.785Z,94835.88
2019-03-29T15:17:57.419Z,94843.00
2019-03-29T15:20:25.971Z,94835.53
2019-03-29T15:22:54.646Z,94844.58
2019-03-29T15:25:23.268Z,94831.14
2019-03-29T15:27:51.897Z,94828.61
2019-03-29T15:30:20.555Z,94832.27
2019-03-29T15:32:49.190Z,94828.30
2019-03-29T15:35:20.807Z,94836.16
2019-03-29T15:37:48.264Z,94831.61
2019-03-29T15:40:16.887Z,94836.30
2019-03-29T15:42:45.512Z,94838.23
2019-03-29T15:45:20.755Z,94839.69
2019-03-29T15:47:45.121Z,94847.95
2019-03-29T15:50:13.744Z,94847.56
2019-03-29T15:52:42.467Z,94833.75
2019-03-29T15:55:11.568Z,94833.64
2019-03-29T15:57:40.187Z,94842.45
2019-03-29T16:00:12.566Z,94843.06
2019-03-29T16:02:41.119Z,94847.72
2019-03-29T16:05:11.195Z,94838.70
2019-03-29T16:07:39.862Z,94851.47
2019-03-29T16:10:08.484Z,94855.66
2019-03-29T16:12:37.094Z,94853.16
2019-03-29T16:15:07.577Z,94856.14
2019-03-29T16:17:36.201Z,94859.05
2019-03-29T16:20:05.937Z,94860.28
2019-03-29T16:22:35.098Z,94863.45
2019-03-29T16:25:05.765Z,94870.80
2019-03-29T16:27:34.385Z,94867.92
2019-03-29T16:30:03.118Z,94877.48
2019-03-29T16:32:31.673Z,94877.61
2019-03-29T16:35:00.385Z,94874.91
2019-03-29T16:37:29.186Z,94869.64
2019-03-29T16:39:57.810Z,94878.61
2019-03-29T16:42:26.441Z,94876.20
2019-03-29T16:44:55.172Z,94876.54
2019-03-29T16:47:23.801Z,94877.92
2019-03-29T16:49:52.429Z,94888.61
2019-03-29T16:52:21.093Z,94891.17
2019-03-29T16:54:49.724Z,94897.97
2019-03-29T16:57:18.266Z,94892.56
2019-03-29T16:59:46.926Z,94890.60
2019-03-29T17:02:15.760Z,94893.11
2019-03-29T17:04:44.390Z,94889.55
2019-03-29T17:07:13.074Z,94891.27
2019-03-29T17:09:41.694Z,94891.99
2019-03-29T17:12:10.313Z,94897.39
2019-03-29T17:14:38.992Z,94896.97
2019-03-29T17:17:07.600Z,94901.64
2019-03-29T17:19:36.231Z,94896.09
2019-03-29T17:22:04.882Z,94899.17
2019-03-29T17:24:33.521Z,94913.41
2019-03-29T17:27:02.141Z,94910.20
2019-03-29T17:29:30.884Z,94907.01
2019-03-29T17:31:59.578Z,94909.00
2019-03-29T17:34:28.209Z,94910.09
2019-03-29T17:36:56.945Z,94906.42
2019-03-29T17:39:25.576Z,94903.31
2019-03-29T17:41:54.213Z,94918.23
2019-03-29T17:44:22.866Z,94906.92
2019-03-29T17:46:51.499Z,94909.37
2019-03-29T17:49:20.133Z,94911.97
2019-03-29T17:51:48.860Z,94914.43
2019-03-29T17:54:17.496Z,94927.66
2019-03-29T17:56:46.114Z,94918.52
2019-03-29T17:59:14.857Z,94918.52
2019-03-29T18:01:43.486Z,94935.16
2019-03-29T18:04:12.119Z,94933.94
2019-03-29T18:06:40.776Z,94940.61
2019-03-29T18:09:09.401Z,94941.30
2019-03-29T18:11:38.018Z,94942.66
2019-03-29T18:14:06.677Z,94936.20
2019-03-29T18:16:35.308Z,94939.91
2019-03-29T18:19:03.935Z,94939.41
2019-03-29T18:21:32.591Z,94941.39
2019-03-29T18:24:01.215Z,94934.11
2019-03-29T18:26:29.836Z,94936.20
2019-03-29T18:28:58.499Z,94936.20
2019-03-29T18:31:27.140Z,94939.42
2019-03-29T18:33:55.760Z,94933.30
2019-03-29T18:36:24.422Z,94941.61
2019-03-29T18:38:53.348Z,94945.49
2019-03-29T18:41:21.980Z,94938.17
2019-03-29T18:43:50.648Z,94951.66
2019-03-29T18:46:19.342Z,94951.95
2019-03-29T18:48:47.967Z,94947.51
2019-03-29T18:51:16.625Z,94950.52
2019-03-29T18:53:45.243Z,94946.66
2019-03-29T18:56:13.875Z,94951.48
2019-03-29T18:58:42.624Z,94949.29
2019-03-29T19:01:11.253Z,94951.12
2019-03-29T19:03:39.869Z,94953.36
2019-03-29T19:06:08.534Z,94950.02
2019-03-29T19:08:37.180Z,94950.93
2019-03-29T19:11:05.818Z,94954.38
2019-03-29T19:13:34.492Z,94939.37
2019-03-29T19:16:03.124Z,94959.73
2019-03-29T19:18:31.817Z,94961.22
2019-03-29T19:21:00.484Z,94960.28
2019-03-29T19:23:29.116Z,94961.27
2019-03-29T19:25:57.758Z,94966.41
2019-03-29T19:28:26.425Z,94955.04
2019-03-29T19:30:55.051Z,94953.19
2019-03-29T19:33:23.690Z,94955.17
2019-03-29T19:35:52.361Z,94943.74
2019-03-29T19:38:21.058Z,94941.08
2019-03-29T19:40:49.700Z,94948.60
2019-03-29T19:43:18.442Z,94948.88
2019-03-29T19:45:47.374Z,94946.64
2019-03-29T19:48:15.955Z,94954.35
2019-03-29T19:50:44.685Z,94952.61
2019-03-29T19:53:13.435Z,94956.00
2019-03-29T19:55:42.127Z,94953.64
2019-03-29T19:58:10.874Z,94953.84
2019-03-29T20:00:41.308Z,94953.73
2019-03-29T20:03:10.080Z,94951.72
2019-03-29T20:05:38.808Z,94937.34
2019-03-29T20:08:07.610Z,94937.34
2019-03-29T20:10:36.407Z,94950.55
2019-03-29T20:13:05.444Z,94949.81
2019-03-29T20:15:34.249Z,94949.81
2019-03-29T20:18:02.879Z,94951.59
2019-03-29T20:20:31.542Z,94943.61
2019-03-29T20:23:01.465Z,94947.23
2019-03-29T20:25:30.165Z,94936.61
2019-03-29T20:27:58.949Z,94936.61
2019-03-29T20:30:28.068Z,94928.92
2019-03-29T20:32:56.969Z,94938.41
2019-03-29T20:35:25.635Z,94938.63
2019-03-29T20:37:54.261Z,94935.28
2019-03-29T20:40:22.963Z,94931.05
2019-03-29T20:42:51.694Z,94825.74
2019-03-29T20:45:20.337Z,94923.58
2019-03-29T20:47:51.884Z,94932.33
2019-03-29T20:50:19.450Z,94934.91
2019-03-29T20:52:48.158Z,94934.91
2019-03-29T20:55:16.858Z,94929.18
2019-03-29T20:57:45.547Z,94929.18
2019-03-29T21:00:16.119Z,94933.39
2019-03-29T21:02:44.882Z,94942.83
2019-03-29T21:05:13.542Z,94940.68
2019-03-29T21:07:42.242Z,94947.87
2019-03-29T21:10:11.177Z,94947.19
2019-03-29T21:12:39.932Z,94949.16
2019-03-29T21:15:09.079Z,94952.67
2019-03-29T21:17:37.708Z,94941.08
2019-03-29T21:20:08.833Z,94941.08
2019-03-29T21:22:37.636Z,94939.75
2019-03-29T21:25:09.378Z,94943.36
2019-03-29T21:27:38.240Z,94944.83
2019-03-29T21:30:09.555Z,94939.45
2019-03-29T21:32:38.254Z,94943.94
2019-03-29T21:35:08.112Z,94945.39
2019-03-29T21:37:37.143Z,94957.25
2019-03-29T21:40:07.988Z,94950.56
2019-03-29T21:42:37.583Z,94954.41
2019-03-29T21:45:08.213Z,94961.08
2019-03-29T21:47:36.812Z,94960.62
2019-03-29T21:50:09.929Z,94961.77
2019-03-29T21:52:38.622Z,94950.17
2019-03-29T21:55:07.550Z,94952.38
2019-03-29T21:57:36.312Z,94953.02
2019-03-29T22:00:12.439Z,94961.37
2019-03-29T22:02:41.061Z,94968.45
2019-03-29T22:05:10.575Z,94967.88
2019-03-29T22:07:39.442Z,94962.09
2019-03-29T22:10:08.766Z,94945.99
2019-03-29T22:12:37.425Z,94945.99
2019-03-29T22:15:07.356Z,94951.23
2019-03-29T22:17:35.998Z,94946.08
2019-03-29T22:20:09.154Z,94956.42
2019-03-29T22:22:37.997Z,94951.06
2019-03-29T22:25:10.678Z,94949.41
2019-03-29T22:27:39.358Z,94954.95
2019-03-29T22:30:11.332Z,94958.34
2019-03-29T22:32:39.968Z,94958.65
2019-03-29T22:35:08.728Z,94967.13
2019-03-29T22:37:37.353Z,94965.63
2019-03-29T22:40:07.992Z,94965.22
2019-03-29T22:42:36.648Z,94965.50
2019-03-29T22:45:07.425Z,94968.53
2019-03-29T22:47:36.054Z,94959.38
2019-03-29T22:50:06.431Z,94968.59
2019-03-29T22:52:35.051Z,94957.48
2019-03-29T22:55:04.890Z,94957.78
2019-03-29T22:57:33.543Z,94948.14
2019-03-29T23:00:02.173Z,94947.59
2019-03-29T23:02:30.789Z,94949.80
2019-03-29T23:04:59.450Z,94954.51
2019-03-29T23:07:28.074Z,94949.95
2019-03-29T23:09:56.705Z,94944.14
2019-03-29T23:12:25.362Z,94951.25
2019-03-29T23:14:53.988Z,94951.38
2019-03-29T23:17:22.625Z,94868.06
2019-03-29T23:19:51.216Z,94937.02
2019-03-29T23:22:19.835Z,94931.93
2019-03-29T23:24:48.451Z,94931.27
2019-03-29T23:27:17.117Z,94921.06
2019-03-29T23:29:45.746Z,94929.80
2019-03-29T23:32:14.301Z,94929.80
2019-03-29T23:34:42.954Z,94929.56
2019-03-29T23:37:11.589Z,94921.25
2019-03-29T23:39:40.152Z,94922.41
2019-03-29T23:42:08.842Z,94905.26
2019-03-29T23:44:37.452Z,94921.34
2019-03-29T23:47:06.082Z,94921.34
2019-03-29T23:49:34.728Z,94917.81
2019-03-29T23:52:03.421Z,94906.22
2019-03-29T23:54:32.039Z,94911.55
2019-03-29T23:57:00.714Z,94908.89
2019-03-29T23:59:29.271Z,94908.89
